createdAt,value
2023-02-09T00:02:18.129Z,-3.58
2023-02-09T00:04:46.282Z,-3.64
2023-02-09T00:07:15.679Z,-3.68
2023-02-09T00:09:44.958Z,-3.71
2023-02-09T00:12:31.110Z,-3.78
2023-02-09T00:15:00.278Z,-3.82
2023-02-09T00:17:28.510Z,-3.89
2023-02-09T00:19:56.560Z,-3.92
2023-02-09T00:22:26.119Z,-3.98
2023-02-09T00:24:57.576Z,-4.05
2023-02-09T00:27:25.761Z,-4.09
2023-02-09T00:29:54.231Z,-4.09
2023-02-09T00:32:22.726Z,-4.10
2023-02-09T00:34:53.452Z,-4.12
2023-02-09T00:37:21.878Z,-4.13
2023-02-09T00:39:51.241Z,-4.12
2023-02-09T00:42:19.796Z,-4.15
2023-02-09T00:44:48.065Z,-4.16
2023-02-09T00:47:16.129Z,-4.13
2023-02-09T00:49:47.317Z,-4.16
2023-02-09T00:52:15.450Z,-4.20
2023-02-09T00:54:46.503Z,-4.23
2023-02-09T00:57:16.132Z,-4.23
2023-02-09T00:59:44.548Z,-4.28
2023-02-09T01:02:12.751Z,-4.30
2023-02-09T01:04:40.964Z,-4.33
2023-02-09T01:07:09.349Z,-4.34
2023-02-09T01:09:38.398Z,-4.37
2023-02-09T01:12:06.908Z,-4.40
2023-02-09T01:14:36.515Z,-4.40
2023-02-09T01:17:04.881Z,-4.45
2023-02-09T01:19:35.541Z,-4.46
2023-02-09T01:22:04.133Z,-4.52
2023-02-09T01:24:32.080Z,-4.56
2023-02-09T01:27:00.232Z,-4.58
2023-02-09T01:29:28.282Z,-4.58
2023-02-09T01:31:57.705Z,-4.58
2023-02-09T01:34:25.828Z,-4.64
2023-02-09T01:36:54.130Z,-4.64
2023-02-09T01:39:22.652Z,-4.67
2023-02-09T01:41:53.188Z,-4.70
2023-02-09T01:45:13.286Z,-4.74
2023-02-09T01:47:46.120Z,-4.81
2023-02-09T01:50:15.433Z,-4.83
2023-02-09T01:52:43.900Z,-4.87
2023-02-09T01:55:15.287Z,-4.89
2023-02-09T01:57:46.551Z,-4.91
2023-02-09T02:00:17.409Z,-4.97
2023-02-09T02:02:50.502Z,-5.01
2023-02-09T02:05:18.955Z,-5.05
2023-02-09T02:07:51.010Z,-5.04
2023-02-09T02:10:19.448Z,-5.04
2023-02-09T02:12:48.457Z,-5.04
2023-02-09T02:15:16.684Z,-5.04
2023-02-09T02:18:09.380Z,-4.99
2023-02-09T02:21:15.329Z,-5.01
2023-02-09T02:23:49.656Z,-4.97
2023-02-09T02:26:35.006Z,-4.95
2023-02-09T02:29:35.252Z,-4.89
2023-02-09T02:32:17.959Z,-4.88
2023-02-09T02:34:49.622Z,-4.87
2023-02-09T02:37:35.525Z,-4.88
2023-02-09T02:40:11.450Z,-4.84
2023-02-09T02:42:50.163Z,-4.83
2023-02-09T02:45:29.151Z,-4.80
2023-02-09T02:48:02.970Z,-4.77
2023-02-09T02:50:32.267Z,-4.64
2023-02-09T02:53:04.646Z,-4.54
2023-02-09T02:55:36.152Z,-4.45
2023-02-09T02:58:08.820Z,-4.34
2023-02-09T03:00:40.458Z,-4.22
2023-02-09T03:03:13.406Z,-4.10
2023-02-09T03:05:42.937Z,-4.05
2023-02-09T03:08:11.290Z,-3.98
2023-02-09T03:10:41.259Z,-3.95
2023-02-09T03:13:28.743Z,-3.87
2023-02-09T03:16:05.887Z,-3.84
2023-02-09T03:18:45.660Z,-3.81
2023-02-09T03:21:17.045Z,-3.79
2023-02-09T03:23:48.811Z,-3.77
2023-02-09T03:26:33.326Z,-3.74
2023-02-09T03:29:05.468Z,-3.70
2023-02-09T03:31:34.052Z,-3.71
2023-02-09T03:34:03.355Z,-3.71
2023-02-09T03:36:34.226Z,-3.68
2023-02-09T03:39:02.819Z,-3.71
2023-02-09T03:41:30.916Z,-3.74
2023-02-09T03:44:17.982Z,-3.73
2023-02-09T03:46:46.102Z,-3.78
2023-02-09T03:49:15.426Z,-3.79
2023-02-09T03:51:43.627Z,-3.84
2023-02-09T03:54:11.992Z,-3.89
2023-02-09T03:56:40.035Z,-3.91
2023-02-09T03:59:08.561Z,-3.85
2023-02-09T04:01:36.836Z,-3.84
2023-02-09T04:04:07.707Z,-3.81
2023-02-09T04:06:37.266Z,-3.81
2023-02-09T04:09:06.744Z,-3.79
2023-02-09T04:11:35.182Z,-3.77
2023-02-09T04:14:03.356Z,-3.78
2023-02-09T04:16:32.318Z,-3.78
2023-02-09T04:19:00.351Z,-3.77
2023-02-09T04:21:30.626Z,-3.77
2023-02-09T04:24:00.212Z,-3.70
2023-02-09T04:26:28.420Z,-3.73
2023-02-09T04:28:56.360Z,-3.74
2023-02-09T04:31:24.845Z,-3.81
2023-02-09T04:33:53.212Z,-3.78
2023-02-09T04:36:23.318Z,-3.77
2023-02-09T04:38:52.151Z,-3.75
2023-02-09T04:41:21.865Z,-3.77
2023-02-09T04:43:50.462Z,-3.81
2023-02-09T04:46:21.666Z,-3.85
2023-02-09T04:48:49.725Z,-3.89
2023-02-09T04:51:17.967Z,-3.91
2023-02-09T04:53:47.307Z,-3.92
2023-02-09T04:56:18.394Z,-3.94
2023-02-09T04:59:05.627Z,-3.92
2023-02-09T05:01:33.758Z,-3.88
2023-02-09T05:04:03.460Z,-3.88
2023-02-09T05:06:31.985Z,-3.85
2023-02-09T05:09:00.048Z,-3.88
2023-02-09T05:11:28.386Z,-3.87
2023-02-09T05:13:58.027Z,-3.87
2023-02-09T05:16:26.417Z,-3.94
2023-02-09T05:18:55.496Z,-3.91
2023-02-09T05:21:23.485Z,-3.98
2023-02-09T05:23:51.757Z,-4.01
2023-02-09T05:26:19.860Z,-3.99
2023-02-09T05:28:48.970Z,-4.05
2023-02-09T05:31:19.034Z,-4.08
2023-02-09T05:33:48.860Z,-4.08
2023-02-09T05:36:17.340Z,-4.10
2023-02-09T05:38:45.410Z,-4.15
2023-02-09T05:41:36.608Z,-4.13
2023-02-09T05:44:05.013Z,-4.12
2023-02-09T05:46:34.600Z,-4.15
2023-02-09T05:49:02.608Z,-4.18
2023-02-09T05:51:32.934Z,-4.16
2023-02-09T05:54:01.346Z,-4.19
2023-02-09T05:56:30.418Z,-4.19
2023-02-09T05:58:58.423Z,-4.18
2023-02-09T06:01:26.639Z,-4.15
2023-02-09T06:03:57.016Z,-3.57
2023-02-09T06:06:25.131Z,-2.72
2023-02-09T06:08:53.466Z,-2.36
2023-02-09T06:11:21.815Z,-2.07
2023-02-09T06:13:51.217Z,-1.88
2023-02-09T06:16:19.334Z,-1.77
2023-02-09T06:18:48.922Z,-1.78
2023-02-09T06:21:18.567Z,-1.83
2023-02-09T06:23:47.041Z,-1.79
2023-02-09T06:26:18.429Z,-1.86
2023-02-09T06:28:47.040Z,-1.62
2023-02-09T06:31:16.449Z,-1.98
2023-02-09T06:33:45.894Z,-2.56
2023-02-09T06:36:13.937Z,-2.96
2023-02-09T06:38:43.505Z,-3.26
2023-02-09T06:41:11.710Z,-3.46
2023-02-09T06:43:40.232Z,-3.60
2023-02-09T06:46:09.414Z,-3.71
2023-02-09T06:48:38.419Z,-3.77
2023-02-09T06:51:10.546Z,-3.73
2023-02-09T06:53:39.186Z,-3.67
2023-02-09T06:56:09.879Z,-3.66
2023-02-09T06:58:38.892Z,-3.58
2023-02-09T07:01:08.993Z,-3.57
2023-02-09T07:03:37.872Z,-3.50
2023-02-09T07:06:07.876Z,-3.47
2023-02-09T07:08:38.530Z,-3.43
2023-02-09T07:11:10.211Z,-3.35
2023-02-09T07:13:38.496Z,-3.27
2023-02-09T07:16:09.246Z,-3.20
2023-02-09T07:18:37.787Z,-3.09
2023-02-09T07:21:08.036Z,-2.98
2023-02-09T07:23:36.367Z,-2.87
2023-02-09T07:26:05.363Z,-2.78
2023-02-09T07:28:36.197Z,-2.68
2023-02-09T07:31:05.995Z,-2.64
2023-02-09T07:33:37.180Z,-2.54
2023-02-09T07:36:06.407Z,-2.43
2023-02-09T07:38:36.097Z,-2.30
2023-02-09T07:41:06.434Z,-2.19
2023-02-09T07:43:36.311Z,-2.10
2023-02-09T07:46:06.167Z,-1.99
2023-02-09T07:48:34.865Z,-1.91
2023-02-09T07:51:03.120Z,-1.82
2023-02-09T07:53:31.613Z,-1.67
2023-02-09T07:55:59.758Z,-1.60
2023-02-09T07:58:27.833Z,-1.41
2023-02-09T08:01:04.826Z,-1.24
2023-02-09T08:03:33.483Z,-1.21
2023-02-09T08:06:03.113Z,-1.13
2023-02-09T08:08:34.218Z,-1.13
2023-02-09T08:11:04.676Z,-1.03
2023-02-09T08:13:35.677Z,-0.91
2023-02-09T08:16:07.227Z,-0.72
2023-02-09T08:18:37.498Z,-0.54
2023-02-09T08:21:06.840Z,-0.45
2023-02-09T08:23:36.952Z,-0.35
2023-02-09T08:26:11.080Z,-0.31
2023-02-09T08:28:45.093Z,-0.20
2023-02-09T08:31:16.800Z,-0.10
2023-02-09T08:33:46.889Z,-0.04
2023-02-09T08:36:16.487Z,0.01
2023-02-09T08:38:47.436Z,0.04
2023-02-09T08:41:16.888Z,0.18
2023-02-09T08:43:48.851Z,0.28
2023-02-09T08:46:19.302Z,0.34
2023-02-09T08:48:47.889Z,0.44
2023-02-09T08:51:18.628Z,0.41
2023-02-09T08:53:52.221Z,0.48
2023-02-09T08:56:21.080Z,0.54
2023-02-09T08:58:50.467Z,0.56
2023-02-09T09:01:20.542Z,0.55
2023-02-09T09:03:49.498Z,0.58
2023-02-09T09:06:17.983Z,0.59
2023-02-09T09:08:46.524Z,0.70
2023-02-09T09:11:15.082Z,0.76
2023-02-09T09:13:44.056Z,0.75
2023-02-09T09:16:16.519Z,0.69
2023-02-09T09:18:46.722Z,0.80
2023-02-09T09:21:17.561Z,0.92
2023-02-09T09:23:48.022Z,1.00
2023-02-09T09:26:16.491Z,1.01
2023-02-09T09:28:44.848Z,0.99
2023-02-09T09:31:15.019Z,1.07
2023-02-09T09:33:51.744Z,1.37
2023-02-09T09:36:20.764Z,1.65
2023-02-09T09:38:49.165Z,1.73
2023-02-09T09:41:24.399Z,1.62
2023-02-09T09:43:54.032Z,1.78
2023-02-09T09:46:25.183Z,1.79
2023-02-09T09:48:58.788Z,1.76
2023-02-09T09:51:35.199Z,1.56
2023-02-09T09:54:04.772Z,1.45
2023-02-09T09:56:34.746Z,1.62
2023-02-09T09:59:03.393Z,1.68
2023-02-09T10:01:34.726Z,1.79
2023-02-09T10:04:10.573Z,1.86
2023-02-09T10:06:42.325Z,1.87
2023-02-09T10:09:17.950Z,1.89
2023-02-09T10:11:51.336Z,1.98
2023-02-09T10:14:21.013Z,2.19
2023-02-09T10:16:50.446Z,2.33
2023-02-09T10:19:22.432Z,2.37
2023-02-09T10:21:51.624Z,2.50
2023-02-09T10:24:25.577Z,2.41
2023-02-09T10:27:08.956Z,2.40
2023-02-09T10:29:37.849Z,2.51
2023-02-09T10:32:09.546Z,2.45
2023-02-09T10:34:46.735Z,2.48
2023-02-09T10:37:23.745Z,2.58
2023-02-09T10:40:00.497Z,2.61
2023-02-09T10:42:32.790Z,2.85
2023-02-09T10:45:07.723Z,3.44
2023-02-09T10:47:36.476Z,3.89
2023-02-09T10:50:17.205Z,4.42
2023-02-09T10:52:56.239Z,4.60
2023-02-09T10:55:29.200Z,4.09
2023-02-09T10:58:24.118Z,3.60
2023-02-09T11:01:00.158Z,3.44
2023-02-09T11:03:29.177Z,3.31
2023-02-09T11:06:02.309Z,3.43
2023-02-09T11:08:39.714Z,3.53
2023-02-09T11:11:10.717Z,3.71
2023-02-09T11:13:40.430Z,3.71
2023-02-09T11:16:27.627Z,3.82
2023-02-09T11:19:00.515Z,3.91
2023-02-09T11:21:39.930Z,3.87
2023-02-09T11:24:11.683Z,3.71
2023-02-09T11:26:59.369Z,3.73
2023-02-09T11:29:35.122Z,3.85
2023-02-09T11:32:13.040Z,3.82
2023-02-09T11:34:56.140Z,3.85
2023-02-09T11:37:38.082Z,3.84
2023-02-09T11:40:24.744Z,3.99
2023-02-09T11:43:02.103Z,4.26
2023-02-09T11:45:33.651Z,4.30
2023-02-09T11:48:06.429Z,4.33
2023-02-09T11:50:40.408Z,4.20
2023-02-09T11:53:17.670Z,4.09
2023-02-09T11:55:49.360Z,4.10
2023-02-09T11:58:46.051Z,4.19
2023-02-09T12:01:23.485Z,4.30
2023-02-09T12:04:07.304Z,4.12
2023-02-09T12:06:40.329Z,3.97
2023-02-09T12:09:26.525Z,3.95
2023-02-09T12:12:03.837Z,4.16
2023-02-09T12:14:46.103Z,4.30
2023-02-09T12:17:19.666Z,4.59
2023-02-09T12:19:56.411Z,4.60
2023-02-09T12:22:50.510Z,4.46
2023-02-09T12:25:34.675Z,4.38
2023-02-09T12:28:17.132Z,4.16
2023-02-09T12:31:01.603Z,3.91
2023-02-09T12:33:31.839Z,3.74
2023-02-09T12:36:02.627Z,3.71
2023-02-09T12:38:52.265Z,3.82
2023-02-09T12:41:25.614Z,3.97
2023-02-09T12:44:07.633Z,3.95
2023-02-09T12:46:53.950Z,3.85
2023-02-09T12:49:22.800Z,3.77
2023-02-09T12:52:07.156Z,3.67
2023-02-09T12:54:40.328Z,3.64
2023-02-09T12:57:42.384Z,3.64
2023-02-09T13:00:34.970Z,3.67
2023-02-09T13:03:22.222Z,3.63
2023-02-09T13:05:51.300Z,3.47
2023-02-09T13:08:30.953Z,3.36
2023-02-09T13:11:03.810Z,3.34
2023-02-09T13:13:41.645Z,3.33
2023-02-09T13:16:27.408Z,3.31
2023-02-09T13:19:00.948Z,3.29
2023-02-09T13:21:37.181Z,3.33
2023-02-09T13:24:09.770Z,3.33
2023-02-09T13:26:50.017Z,3.37
2023-02-09T13:29:22.113Z,3.34
2023-02-09T13:32:01.384Z,3.36
2023-02-09T13:34:34.846Z,3.37
2023-02-09T13:37:13.809Z,3.40
2023-02-09T13:39:44.266Z,3.34
2023-02-09T13:42:13.446Z,3.31
2023-02-09T13:44:46.651Z,3.33
2023-02-09T13:47:19.343Z,3.31
2023-02-09T13:49:57.318Z,3.27
2023-02-09T13:52:26.822Z,3.18
2023-02-09T13:54:55.552Z,3.10
2023-02-09T13:57:32.730Z,3.40
2023-02-09T14:00:09.843Z,3.80
2023-02-09T14:02:39.545Z,3.98
2023-02-09T14:05:09.534Z,4.23
2023-02-09T14:07:43.039Z,4.20
2023-02-09T14:10:14.248Z,4.06
2023-02-09T14:12:55.774Z,3.88
2023-02-09T14:15:48.635Z,3.61
2023-02-09T14:18:35.686Z,3.37
2023-02-09T14:21:15.643Z,3.22
2023-02-09T14:24:12.809Z,3.12
2023-02-09T14:26:52.045Z,3.05
2023-02-09T14:29:24.684Z,3.01
2023-02-09T14:31:54.629Z,2.95
2023-02-09T14:34:45.694Z,2.92
2023-02-09T14:37:31.844Z,2.88
2023-02-09T14:40:02.263Z,2.85
2023-02-09T14:42:33.006Z,2.85
2023-02-09T14:45:03.066Z,2.87
2023-02-09T14:47:38.718Z,2.82
2023-02-09T14:50:13.273Z,2.80
2023-02-09T14:52:46.702Z,2.72
2023-02-09T14:55:18.183Z,2.71
2023-02-09T14:57:48.370Z,2.64
2023-02-09T15:00:20.678Z,2.60
2023-02-09T15:05:33.613Z,2.52
2023-02-09T15:08:05.823Z,2.47
2023-02-09T15:10:36.915Z,2.40
2023-02-09T15:13:08.278Z,2.37
2023-02-09T15:15:40.704Z,2.33
2023-02-09T15:18:15.134Z,2.26
2023-02-09T15:20:47.156Z,2.19
2023-02-09T15:23:15.502Z,2.14
2023-02-09T15:25:44.736Z,2.07
2023-02-09T15:28:16.224Z,2.03
2023-02-09T15:30:45.588Z,1.98
2023-02-09T15:33:14.036Z,1.98
2023-02-09T15:35:42.520Z,1.93
2023-02-09T15:38:18.669Z,1.86
2023-02-09T15:41:06.801Z,1.79
2023-02-09T15:43:49.079Z,1.75
2023-02-09T15:46:36.198Z,1.72
2023-02-09T15:49:05.837Z,1.66
2023-02-09T15:51:38.577Z,1.64
2023-02-09T15:54:17.534Z,1.59
2023-02-09T15:56:46.764Z,1.58
2023-02-09T15:59:19.600Z,1.50
2023-02-09T16:01:48.752Z,1.43
2023-02-09T16:04:16.744Z,1.35
2023-02-09T16:06:53.370Z,1.31
2023-02-09T16:09:28.723Z,1.26
2023-02-09T16:11:59.090Z,1.22
2023-02-09T16:14:28.954Z,1.17
2023-02-09T16:17:01.336Z,1.17
2023-02-09T16:19:29.825Z,1.17
2023-02-09T16:21:59.676Z,1.10
2023-02-09T16:24:32.907Z,1.08
2023-02-09T16:27:01.625Z,1.07
2023-02-09T16:29:30.106Z,1.03
2023-02-09T16:31:58.198Z,1.00
2023-02-09T16:34:26.470Z,0.93
2023-02-09T16:36:54.722Z,0.93
2023-02-09T16:39:23.878Z,0.94
2023-02-09T16:41:54.738Z,0.92
2023-02-09T16:44:25.207Z,0.83
2023-02-09T16:46:55.786Z,0.80
2023-02-09T16:49:31.858Z,0.76
2023-02-09T16:52:05.127Z,0.75
2023-02-09T16:54:38.142Z,0.68
2023-02-09T16:57:07.701Z,0.65
2023-02-09T16:59:35.895Z,0.61
2023-02-09T17:02:05.648Z,0.61
2023-02-09T17:04:38.182Z,0.61
2023-02-09T17:07:06.733Z,0.59
2023-02-09T17:09:35.765Z,0.55
2023-02-09T17:12:04.127Z,0.56
2023-02-09T17:14:36.560Z,0.54
2023-02-09T17:17:04.705Z,0.51
2023-02-09T17:19:47.014Z,0.49
2023-02-09T17:22:16.715Z,0.46
2023-02-09T17:24:47.108Z,0.45
2023-02-09T17:27:27.289Z,0.44
2023-02-09T17:30:01.349Z,0.44
2023-02-09T17:32:29.802Z,0.42
2023-02-09T17:34:58.211Z,0.41
2023-02-09T17:37:26.503Z,0.41
2023-02-09T17:39:55.191Z,0.35
2023-02-09T17:42:26.035Z,0.34
2023-02-09T17:44:55.906Z,0.33
2023-02-09T17:47:26.724Z,0.33
2023-02-09T17:49:56.458Z,0.27
2023-02-09T17:52:24.825Z,0.24
2023-02-09T17:54:54.312Z,0.27
2023-02-09T17:57:22.682Z,0.34
2023-02-09T17:59:50.742Z,0.33
2023-02-09T18:02:20.836Z,0.28
2023-02-09T18:04:50.688Z,0.19
2023-02-09T18:07:20.558Z,0.14
2023-02-09T18:09:50.288Z,0.13
2023-02-09T18:12:20.596Z,0.10
2023-02-09T18:14:48.930Z,0.08
2023-02-09T18:17:17.241Z,0.04
2023-02-09T18:19:45.463Z,0.04
2023-02-09T18:22:17.736Z,0.06
2023-02-09T18:24:46.272Z,-0.02
2023-02-09T18:27:16.233Z,-0.03
2023-02-09T18:29:44.904Z,-0.04
2023-02-09T18:32:16.870Z,-0.06
2023-02-09T18:34:45.234Z,-0.06
2023-02-09T18:37:17.869Z,-0.07
2023-02-09T18:39:48.232Z,-0.09
2023-02-09T18:42:17.314Z,-0.10
2023-02-09T18:44:45.674Z,-0.14
2023-02-09T18:47:13.688Z,-0.14
2023-02-09T18:49:42.074Z,-0.17
2023-02-09T18:52:10.382Z,-0.20
2023-02-09T18:54:42.033Z,-0.17
2023-02-09T18:57:10.070Z,-0.23
2023-02-09T18:59:39.078Z,-0.27
2023-02-09T19:02:10.224Z,-0.34
2023-02-09T19:04:38.250Z,-0.37
2023-02-09T19:07:09.575Z,-0.34
2023-02-09T19:09:39.106Z,-0.35
2023-02-09T19:12:08.859Z,-0.38
2023-02-09T19:14:42.124Z,-0.45
2023-02-09T19:17:14.556Z,-0.50
2023-02-09T19:19:42.758Z,-0.48
2023-02-09T19:22:14.818Z,-0.48
2023-02-09T19:24:43.113Z,-0.46
2023-02-09T19:27:13.960Z,-0.45
2023-02-09T19:29:42.391Z,-0.48
2023-02-09T19:32:11.501Z,-0.50
2023-02-09T19:34:42.909Z,-0.45
2023-02-09T19:37:12.051Z,-0.46
2023-02-09T19:39:42.582Z,-0.51
2023-02-09T19:42:12.614Z,-0.54
2023-02-09T19:44:40.846Z,-0.60
2023-02-09T19:47:09.002Z,-0.61
2023-02-09T19:49:38.958Z,-0.62
2023-02-09T19:52:07.554Z,-0.68
2023-02-09T19:54:36.141Z,-0.75
2023-02-09T19:57:05.014Z,-0.76
2023-02-09T19:59:34.641Z,-0.79
2023-02-09T20:02:03.280Z,-0.83
2023-02-09T20:04:31.601Z,-0.89
2023-02-09T20:07:00.235Z,-0.92
2023-02-09T20:09:29.381Z,-0.96
2023-02-09T20:11:57.618Z,-0.96
2023-02-09T20:14:30.077Z,-0.95
2023-02-09T20:17:01.150Z,-0.93
2023-02-09T20:19:29.510Z,-0.89
2023-02-09T20:21:57.788Z,-0.92
2023-02-09T20:24:26.361Z,-0.93
2023-02-09T20:26:56.062Z,-0.95
2023-02-09T20:29:25.407Z,-0.97
2023-02-09T20:31:54.010Z,-0.96
2023-02-09T20:34:23.667Z,-0.95
2023-02-09T20:36:51.839Z,-0.99
2023-02-09T20:39:22.462Z,-1.00
2023-02-09T20:42:12.339Z,-1.02
2023-02-09T20:44:58.182Z,-1.06
2023-02-09T20:47:27.307Z,-1.07
2023-02-09T20:50:01.623Z,-1.07
2023-02-09T20:52:33.320Z,-1.12
2023-02-09T20:55:05.751Z,-1.12
2023-02-09T20:57:34.024Z,-1.12
2023-02-09T21:00:02.222Z,-1.09
2023-02-09T21:02:30.317Z,-1.06
2023-02-09T21:05:00.808Z,-1.03
2023-02-09T21:07:28.923Z,-1.03
2023-02-09T21:09:58.347Z,-1.03
2023-02-09T21:12:29.484Z,-1.03
2023-02-09T21:14:58.962Z,-1.04
2023-02-09T21:17:31.207Z,-1.04
2023-02-09T21:20:01.594Z,-1.03
2023-02-09T21:22:29.708Z,-1.07
2023-02-09T21:24:58.290Z,-1.12
2023-02-09T21:27:27.395Z,-1.10
2023-02-09T21:29:57.160Z,-1.12
2023-02-09T21:32:28.995Z,-1.14
2023-02-09T21:34:57.315Z,-1.17
2023-02-09T21:37:29.447Z,-1.26
2023-02-09T21:40:02.204Z,-1.27
2023-02-09T21:42:31.746Z,-1.20
2023-02-09T21:45:02.675Z,-1.19
2023-02-09T21:47:34.813Z,-1.14
2023-02-09T21:50:03.163Z,-1.10
2023-02-09T21:52:34.676Z,-1.04
2023-02-09T21:55:03.254Z,-0.99
2023-02-09T21:57:31.649Z,-0.92
2023-02-09T22:00:05.016Z,-0.86
2023-02-09T22:02:33.934Z,-0.86
2023-02-09T22:05:02.863Z,-0.79
2023-02-09T22:07:34.987Z,-0.73
2023-02-09T22:10:05.362Z,-0.66
2023-02-09T22:12:34.212Z,-0.57
2023-02-09T22:15:14.097Z,-0.46
2023-02-09T22:17:42.604Z,-0.40
2023-02-09T22:20:11.965Z,-0.35
2023-02-09T22:22:44.151Z,-0.30
2023-02-09T22:25:14.560Z,-0.24
2023-02-09T22:27:44.316Z,-0.20
2023-02-09T22:30:14.054Z,-0.15
2023-02-09T22:32:43.768Z,-0.13
2023-02-09T22:35:19.588Z,-0.13
2023-02-09T22:37:49.879Z,-0.10
2023-02-09T22:40:22.975Z,-0.06
2023-02-09T22:42:51.658Z,-0.03
2023-02-09T22:45:20.974Z,-0.02
2023-02-09T22:47:49.471Z,0.01
2023-02-09T22:50:18.204Z,0.07
2023-02-09T22:52:47.243Z,0.08
2023-02-09T22:55:17.209Z,0.11
2023-02-09T22:57:48.963Z,0.13
2023-02-09T23:00:18.276Z,0.14
2023-02-09T23:02:46.475Z,0.18
2023-02-09T23:05:16.446Z,0.19
2023-02-09T23:07:46.575Z,0.19
2023-02-09T23:10:18.210Z,0.19
2023-02-09T23:12:46.564Z,0.21
2023-02-09T23:15:14.686Z,0.22
2023-02-09T23:17:44.110Z,0.25
2023-02-09T23:20:12.963Z,0.29
2023-02-09T23:22:41.162Z,0.29
2023-02-09T23:25:09.658Z,0.33
2023-02-09T23:27:39.133Z,0.35
2023-02-09T23:30:08.798Z,0.34
2023-02-09T23:32:40.339Z,0.35
2023-02-09T23:35:09.301Z,0.35
2023-02-09T23:37:38.354Z,0.35
2023-02-09T23:40:07.951Z,0.33
2023-02-09T23:42:36.142Z,0.35
2023-02-09T23:45:06.385Z,0.37
2023-02-09T23:47:34.654Z,0.37
2023-02-09T23:50:02.692Z,0.38
2023-02-09T23:52:31.211Z,0.40
2023-02-09T23:54:59.702Z,0.42
2023-02-09T23:57:27.826Z,0.46
2023-02-09T23:59:56.790Z,0.48
